Time;durP1;ratioP1;P1;durP2;ratioP2;P2;SDS_P1;SDS_P2;PMS_P1;PMS_P2;Temp;Humidity;BMP_temperature;BMP_pressure;BME280_temperature;BME280_humidity;BME280_pressure;Samples;Min_cycle;Max_cycle;Signal;HPM_P1;HPM_P2
2022/01/17 00:05:53;;;;;;;24.08;12.35;;;;;;;5.11;57.13;101157.44;18371468;32;20081;-68
2022/01/17 00:16:04;;;;;;;24.55;11.57;;;;;;;5.30;56.83;101142.50;18371324;32;20090;-68
2022/01/17 00:26:07;;;;;;;22.73;10.95;;;;;;;4.99;57.74;101126.88;18371055;32;20129;-68
2022/01/17 00:36:12;;;;;;;22.55;10.10;;;;;;;5.22;57.12;101159.53;18370465;32;20112;-68
2022/01/17 00:46:15;;;;;;;20.88;10.32;;;;;;;5.05;57.37;101141.72;18369647;32;20107;-67
2022/01/17 00:56:21;;;;;;;24.73;10.90;;;;;;;5.52;55.69;101153.53;18370193;32;20097;-68
2022/01/17 01:06:24;;;;;;;21.80;10.43;;;;;;;5.58;55.80;101158.87;18370124;32;20089;-67
2022/01/17 01:16:34;;;;;;;23.48;11.95;;;;;;;5.15;57.13;101158.41;18369741;32;20086;-67
2022/01/17 01:36:59;;;;;;;21.67;10.77;;;;;;;5.12;56.64;101122.09;18369041;32;20094;-68
2022/01/17 01:47:02;;;;;;;21.30;9.85;;;;;;;5.25;56.16;101110.41;18368973;32;20443;-67
2022/01/17 01:57:06;;;;;;;20.73;9.77;;;;;;;5.37;56.14;101105.63;18368504;32;20082;-68
2022/01/17 02:07:09;;;;;;;21.87;9.60;;;;;;;5.59;55.29;101113.16;18368283;32;20081;-68
2022/01/17 02:17:13;;;;;;;19.70;9.63;;;;;;;5.64;55.20;101086.56;18367907;32;20099;-68
2022/01/17 02:27:18;;;;;;;19.15;8.80;;;;;;;5.52;55.78;101083.63;18367109;32;20081;-68
2022/01/17 02:37:21;;;;;;;21.12;9.52;;;;;;;5.09;57.19;101091.81;18366899;32;20085;-68
2022/01/17 02:47:25;;;;;;;17.10;8.05;;;;;;;5.82;55.00;101080.16;18366732;32;20093;-68
2022/01/17 02:57:29;;;;;;;18.48;8.90;;;;;;;6.26;53.42;101058.91;18366286;32;20094;-68
2022/01/17 03:07:33;;;;;;;16.90;7.10;;;;;;;6.07;53.93;101067.87;18369225;32;20097;-68
2022/01/17 03:17:36;;;;;;;17.27;7.57;;;;;;;6.01;53.66;101071.16;18372891;32;20097;-68
2022/01/17 03:27:40;;;;;;;14.30;6.80;;;;;;;5.95;54.16;101063.22;18372863;32;20085;-69
2022/01/17 03:37:44;;;;;;;15.60;7.22;;;;;;;6.06;53.62;101054.06;18373424;32;20109;-68
2022/01/17 03:47:49;;;;;;;13.65;6.85;;;;;;;6.00;53.96;101063.34;18372167;32;20066;-69
2022/01/17 03:57:52;;;;;;;14.73;6.30;;;;;;;6.45;52.57;101046.41;18371842;32;20083;-69
2022/01/17 04:07:56;;;;;;;13.40;6.70;;;;;;;6.31;52.74;101017.53;18371729;32;20106;-69
2022/01/17 04:18:00;;;;;;;12.37;5.50;;;;;;;6.23;52.27;101022.53;18371358;32;20089;-69
2022/01/17 04:28:06;;;;;;;12.95;6.47;;;;;;;6.28;52.05;101039.06;18371149;32;20554;-69
2022/01/17 04:38:12;;;;;;;14.63;6.70;;;;;;;6.27;52.25;101046.81;18370862;32;20204;-69
2022/01/17 04:48:17;;;;;;;13.52;6.18;;;;;;;6.47;51.72;101045.59;18370549;32;20497;-69
2022/01/17 04:58:20;;;;;;;14.07;6.62;;;;;;;6.32;51.92;101045.22;18370173;32;20103;-69
2022/01/17 05:08:25;;;;;;;14.32;5.95;;;;;;;6.44;51.51;101036.87;18370007;32;20089;-69
2022/01/17 05:28:46;;;;;;;15.75;6.35;;;;;;;6.52;51.57;101023.22;18368298;32;20416;-69
2022/01/17 05:38:49;;;;;;;15.65;6.53;;;;;;;6.74;51.08;101021.19;18369042;32;20090;-69
2022/01/17 05:48:53;;;;;;;14.63;7.22;;;;;;;6.31;52.15;101018.41;18368995;32;20109;-69
2022/01/17 05:58:56;;;;;;;16.75;6.75;;;;;;;6.70;51.26;101011.53;18368619;32;20390;-69
2022/01/17 06:09:00;;;;;;;14.90;6.72;;;;;;;6.45;52.07;100994.53;18368583;32;20089;-69
2022/01/17 06:19:04;;;;;;;14.23;6.45;;;;;;;6.73;51.25;101000.38;18368096;32;20628;-69
2022/01/17 06:29:10;;;;;;;12.25;5.75;;;;;;;6.50;51.55;101017.13;18367522;32;20085;-69
2022/01/17 06:39:13;;;;;;;15.85;6.78;;;;;;;6.75;51.09;101009.06;18365349;32;20089;-69
2022/01/17 06:49:17;;;;;;;12.88;5.90;;;;;;;6.44;51.63;100978.06;18366485;32;20103;-69
2022/01/17 07:49:26;;;;;;;11.50;5.65;;;;;;;7.61;49.64;101010.06;18736146;31;135258;-71
2022/01/17 07:59:29;;;;;;;11.43;5.47;;;;;;;7.61;49.64;101010.06;18740519;31;20346;-71
2022/01/17 08:09:34;;;;;;;12.50;5.28;;;;;;;7.02;51.24;100962.09;18740227;31;20088;-71
2022/01/17 08:19:38;;;;;;;11.18;5.10;;;;;;;7.28;50.36;100946.16;18741176;31;20087;-70
2022/01/17 08:29:43;;;;;;;12.85;5.45;;;;;;;7.40;49.79;100882.31;18741265;31;20076;-70
2022/01/17 08:40:08;;;;;;;11.95;5.43;;;;;;;7.29;50.42;100908.97;18740711;31;20099;-70
2022/01/17 08:50:13;;;;;;;12.45;5.22;;;;;;;7.83;49.08;100942.88;18697031;31;20102;-69
2022/01/17 09:00:18;;;;;;;12.82;5.70;;;;;;;7.75;49.71;100949.66;18681596;31;20364;-69
2022/01/17 09:10:43;;;;;;;10.25;4.68;;;;;;;7.50;50.84;100918.03;18576052;31;20085;-70
2022/01/17 09:20:46;;;;;;;14.93;7.05;;;;;;;7.42;50.73;100884.09;18522388;31;20100;-69
2022/01/17 09:30:51;;;;;;;11.75;5.53;;;;;;;7.53;51.08;100834.94;18498917;32;20085;-70
2022/01/17 09:40:54;;;;;;;13.98;5.37;;;;;;;7.22;52.01;100835.25;18474951;32;20097;-70
2022/01/17 09:51:37;;;;;;;14.77;6.07;;;;;;;7.10;52.77;100796.09;18497969;32;20158;-69
2022/01/17 10:01:41;;;;;;;12.02;5.20;;;;;;;7.48;51.65;100793.31;18497265;32;20736;-69
2022/01/17 10:12:09;;;;;;;12.52;5.75;;;;;;;7.47;51.43;100778.56;18497618;32;20085;-69
2022/01/17 10:22:32;;;;;;;12.00;5.72;;;;;;;7.77;51.14;100777.31;18497336;32;20073;-70
2022/01/17 10:43:01;;;;;;;11.80;5.75;;;;;;;8.15;50.31;100705.03;18496753;32;20088;-69
2022/01/17 10:53:07;;;;;;;12.32;6.35;;;;;;;7.83;51.43;100721.94;18496368;32;20451;-70
2022/01/17 11:03:12;;;;;;;12.07;5.95;;;;;;;7.78;51.74;100684.63;18496326;32;20089;-69
2022/01/17 11:13:18;;;;;;;12.70;6.32;;;;;;;7.80;52.07;100682.91;18495283;32;20138;-70
2022/01/17 11:23:21;;;;;;;11.10;5.10;;;;;;;7.81;52.31;100649.97;18495301;32;20089;-69
2022/01/17 11:33:26;;;;;;;15.45;5.43;;;;;;;7.87;51.79;100617.19;18494476;32;20117;-70
2022/01/17 11:43:34;;;;;;;13.25;5.30;;;;;;;7.51;52.76;100584.66;18494140;32;20085;-70
2022/01/17 11:53:45;;;;;;;10.27;4.57;;;;;;;7.91;51.62;100584.25;18493754;32;20084;-70
2022/01/17 12:03:49;;;;;;;12.65;4.75;;;;;;;7.90;51.60;100573.00;18492871;32;20113;-72
2022/01/17 12:13:58;;;;;;;12.98;4.40;;;;;;;7.79;52.02;100535.63;18492223;32;20193;-72
2022/01/17 12:24:34;;;;;;;12.50;5.15;;;;;;;7.72;51.91;100537.25;18499226;32;20099;-70
2022/01/17 12:34:42;;;;;;;10.43;4.43;;;;;;;7.85;51.55;100535.69;18500509;32;20099;-73
2022/01/17 12:44:46;;;;;;;9.77;4.72;;;;;;;7.99;51.43;100502.03;18500306;32;20088;-73
2022/01/17 12:54:50;;;;;;;13.70;5.90;;;;;;;7.72;52.38;100503.47;18500157;32;20084;-69
2022/01/17 13:04:57;;;;;;;9.82;3.97;;;;;;;8.12;51.52;100502.19;18499421;32;20344;-69
2022/01/17 13:15:01;;;;;;;10.25;4.25;;;;;;;8.28;50.71;100509.25;18499352;32;20089;-69
2022/01/17 13:25:06;;;;;;;10.85;4.18;;;;;;;8.19;51.20;100514.34;18498887;32;20122;-70
2022/01/17 13:35:13;;;;;;;9.63;4.10;;;;;;;8.49;51.64;100486.91;18491409;32;20093;-69
2022/01/17 13:45:39;;;;;;;12.73;5.28;;;;;;;7.90;53.27;100488.94;18463288;32;20128;-69
2022/01/17 13:55:44;;;;;;;13.73;5.57;;;;;;;7.87;54.49;100469.00;18454372;32;20782;-70
2022/01/17 14:05:49;;;;;;;15.90;7.50;;;;;;;7.94;53.75;100461.25;18473496;32;20088;-71
2022/01/17 14:15:54;;;;;;;10.75;4.55;;;;;;;7.83;53.97;100401.41;18492130;32;20437;-72
2022/01/17 14:25:57;;;;;;;9.57;4.32;;;;;;;7.49;55.29;100415.78;18496852;32;20088;-74
2022/01/17 14:36:10;;;;;;;10.70;4.43;;;;;;;7.40;55.21;100417.38;18496976;32;20085;-73
2022/01/17 14:46:14;;;;;;;10.48;4.20;;;;;;;7.48;55.14;100405.38;18492490;32;20088;-74
2022/01/17 15:06:45;;;;;;;10.60;4.32;;;;;;;7.60;54.55;100436.69;18494834;32;20102;-74
2022/01/17 15:16:49;;;;;;;7.47;3.50;;;;;;;7.73;55.38;100437.69;18495278;32;20174;-76
2022/01/17 15:26:52;;;;;;;7.18;3.60;;;;;;;7.86;54.56;100469.84;18495393;32;20093;-74
2022/01/17 15:36:57;;;;;;;7.72;3.12;;;;;;;7.97;54.25;100487.31;18494647;32;20110;-73
2022/01/17 15:47:00;;;;;;;10.15;4.87;;;;;;;7.91;54.42;100473.38;18493578;32;20111;-73
2022/01/17 15:57:06;;;;;;;10.20;3.78;;;;;;;7.71;55.33;100469.72;18498800;32;20089;-75
2022/01/17 16:07:12;;;;;;;8.27;2.90;;;;;;;7.58;56.29;100510.25;18501628;32;20111;-72
2022/01/17 16:17:17;;;;;;;11.05;3.72;;;;;;;7.59;56.45;100517.19;18501098;32;20088;-74
2022/01/17 16:27:20;;;;;;;9.70;4.07;;;;;;;7.48;58.33;100525.75;18500996;32;20081;-77
2022/01/17 16:37:26;;;;;;;14.52;6.00;;;;;;;6.92;61.90;100550.03;18500705;32;20457;-74
2022/01/17 16:47:30;;;;;;;8.10;3.62;;;;;;;6.51;67.13;100627.22;18500316;32;20088;-72
2022/01/17 16:57:34;;;;;;;9.27;3.50;;;;;;;5.94;71.17;100690.91;18499865;32;20084;-75
2022/01/17 17:07:37;;;;;;;8.57;3.30;;;;;;;5.86;70.88;100711.44;18499185;32;20107;-75
2022/01/17 17:17:41;;;;;;;6.43;2.37;;;;;;;5.43;71.04;100744.12;18499420;32;20098;-74
2022/01/17 17:27:44;;;;;;;7.10;2.90;;;;;;;5.69;70.26;100794.84;18499421;32;20164;-74
2022/01/17 17:37:49;;;;;;;5.05;2.15;;;;;;;5.54;70.64;100813.44;18498872;32;20108;-75
2022/01/17 17:47:52;;;;;;;5.95;1.87;;;;;;;5.59;67.22;100790.25;18498361;32;20089;-75
2022/01/17 17:57:57;;;;;;;3.08;1.35;;;;;;;5.57;63.75;100829.94;18498275;32;20103;-76
2022/01/17 18:08:00;;;;;;;4.30;1.48;;;;;;;5.30;61.53;100875.84;18498321;32;20101;-74
2022/01/17 18:18:06;;;;;;;6.93;2.30;;;;;;;5.52;62.61;100904.91;18496156;32;20161;-75
2022/01/17 18:28:11;;;;;;;5.70;2.03;;;;;;;5.74;60.38;100933.97;18497289;32;20641;-75
2022/01/17 18:38:20;;;;;;;7.37;3.12;;;;;;;5.28;60.43;100981.06;18497245;32;20089;-75
2022/01/17 18:48:28;;;;;;;3.17;1.55;;;;;;;4.96;60.57;100986.19;18496970;32;20120;-75
2022/01/17 18:58:33;;;;;;;5.18;1.75;;;;;;;4.91;59.77;101006.72;18496743;32;20158;-74
2022/01/17 19:08:36;;;;;;;5.75;2.20;;;;;;;4.90;58.68;101001.50;18496498;32;20106;-75
2022/01/17 19:29:01;;;;;;;5.75;2.22;;;;;;;4.72;55.57;101028.53;18495014;32;20451;-74
2022/01/17 19:39:07;;;;;;;2.10;1.30;;;;;;;4.63;56.74;101070.53;18494507;32;20093;-76
2022/01/17 19:49:10;;;;;;;3.75;1.37;;;;;;;4.98;53.02;101103.53;18493460;32;20450;-74
2022/01/17 19:59:14;;;;;;;3.28;1.62;;;;;;;4.78;52.83;101126.16;18486485;32;20089;-74
2022/01/17 20:09:18;;;;;;;4.30;1.40;;;;;;;4.74;53.26;101171.72;18491014;32;20089;-74
2022/01/17 20:19:22;;;;;;;7.35;2.10;;;;;;;4.73;51.93;101190.66;18489885;32;20137;-74
2022/01/17 20:29:25;;;;;;;3.75;1.73;;;;;;;4.91;50.87;101210.25;18489320;32;20387;-73
2022/01/17 20:39:30;;;;;;;8.57;2.67;;;;;;;4.52;51.40;101227.88;18495314;32;20108;-74
2022/01/17 20:49:33;;;;;;;3.80;2.00;;;;;;;4.46;52.88;101230.28;18493789;32;20144;-74
2022/01/17 20:59:37;;;;;;;6.35;2.40;;;;;;;4.18;50.36;101230.94;18494741;32;20132;-73
2022/01/17 21:09:40;;;;;;;6.82;2.58;;;;;;;4.39;48.13;101236.91;18496629;32;20076;-73
2022/01/17 21:19:45;;;;;;;5.37;1.92;;;;;;;4.34;46.73;101240.16;18495391;32;20455;-75
2022/01/17 21:29:48;;;;;;;7.97;2.45;;;;;;;4.11;46.95;101272.06;18494080;32;20119;-73
2022/01/17 21:39:52;;;;;;;4.90;2.08;;;;;;;4.24;46.79;101300.97;18489070;32;20455;-75
2022/01/17 21:49:55;;;;;;;5.12;2.03;;;;;;;4.03;46.30;101292.44;18496829;32;20133;-75
2022/01/17 22:00:00;;;;;;;5.22;1.95;;;;;;;4.09;46.48;101262.50;18494295;32;20132;-74
2022/01/17 22:10:04;;;;;;;4.97;2.35;;;;;;;4.06;46.94;101280.44;18494137;32;20099;-75
2022/01/17 22:20:10;;;;;;;4.07;1.48;;;;;;;4.00;46.93;101307.84;18493255;32;20103;-74
2022/01/17 22:30:13;;;;;;;4.85;1.70;;;;;;;4.24;46.60;101319.94;18497832;32;20081;-73
2022/01/17 22:40:18;;;;;;;5.70;1.87;;;;;;;4.03;47.22;101338.06;18497313;32;20107;-73
2022/01/17 22:50:21;;;;;;;7.62;1.85;;;;;;;4.03;47.05;101338.94;18496937;32;20451;-73
2022/01/17 23:00:27;;;;;;;7.12;2.35;;;;;;;4.33;46.64;101365.94;18495911;32;20107;-74
2022/01/17 23:10:31;;;;;;;6.78;1.92;;;;;;;4.56;45.83;101392.69;18496210;32;20162;-72
2022/01/17 23:20:35;;;;;;;5.12;1.80;;;;;;;4.26;46.27;101411.34;18495662;32;20394;-73
2022/01/17 23:33:54;;;;;;;7.93;2.10;;;;;;;4.35;45.97;101423.75;18495102;32;20123;-74
2022/01/17 23:41:30;;;;;;;3.83;1.87;;;;;;;4.27;46.06;101438.97;18494316;32;20357;-74
2022/01/17 23:51:33;;;;;;;4.37;1.90;;;;;;;4.29;45.31;101446.78;18493724;32;20091;-73
